Time;durP1;ratioP1;P1;durP2;ratioP2;P2;SDS_P1;SDS_P2;PMS_P1;PMS_P2;Temp;Humidity;BMP_temperature;BMP_pressure;BME280_temperature;BME280_humidity;BME280_pressure;Samples;Min_cycle;Max_cycle;Signal;HPM_P1;HPM_P2
2023/01/29 00:01:49;;;;;;;42.30;29.40;;;1.40;56.20;;;;;;5057503;28;20217;-84
2023/01/29 00:04:15;;;;;;;41.50;29.50;;;1.40;55.90;;;;;;5057275;28;20287;-86
2023/01/29 00:06:40;;;;;;;41.27;29.77;;;1.50;55.30;;;;;;5055180;28;20270;-83
2023/01/29 00:09:06;;;;;;;41.17;30.03;;;1.40;55.20;;;;;;5056077;28;20180;-84
2023/01/29 00:11:32;;;;;;;42.33;30.60;;;1.50;56.30;;;;;;5056310;28;20173;-84
2023/01/29 00:13:57;;;;;;;40.13;31.40;;;1.50;55.90;;;;;;5055874;28;20204;-85
2023/01/29 00:16:23;;;;;;;44.03;30.63;;;1.60;54.90;;;;;;5056115;28;20227;-86
2023/01/29 00:18:49;;;;;;;42.30;30.77;;;1.70;54.20;;;;;;5055589;28;20204;-85
2023/01/29 00:21:17;;;;;;;40.97;29.77;;;1.60;53.60;;;;;;5056316;28;20194;-85
2023/01/29 00:23:43;;;;;;;37.87;28.90;;;1.70;53.10;;;;;;5057172;28;20688;-85
2023/01/29 00:26:09;;;;;;;41.23;30.33;;;1.70;52.00;;;;;;5056442;28;20177;-84
2023/01/29 00:28:36;;;;;;;45.23;29.87;;;1.70;51.50;;;;;;5056793;28;20259;-84
2023/01/29 00:31:19;;;;;;;43.13;29.27;;;1.70;51.30;;;;;;5058500;28;20173;-84
2023/01/29 00:33:45;;;;;;;44.00;29.53;;;1.80;50.10;;;;;;5057154;28;20169;-83
2023/01/29 00:36:13;;;;;;;40.93;28.63;;;1.90;47.70;;;;;;5056629;28;20199;-86
2023/01/29 00:38:38;;;;;;;41.23;29.50;;;1.90;45.80;;;;;;5056822;28;20196;-86
2023/01/29 00:46:43;;;;;;;41.50;29.33;;;1.80;44.20;;;;;;5059964;28;20247;-84
2023/01/29 00:49:08;;;;;;;43.93;29.73;;;2.00;40.80;;;;;;5059618;28;20625;-84
2023/01/29 00:51:36;;;;;;;42.07;30.07;;;2.10;33.60;;;;;;5067231;28;20157;-86
2023/01/29 00:54:05;;;;;;;45.37;30.17;;;1.90;29.40;;;;;;5068187;28;20204;-84
2023/01/29 00:56:34;;;;;;;43.73;31.20;;;1.80;31.30;;;;;;5058335;28;20169;-83
2023/01/29 00:59:02;;;;;;;41.30;29.30;;;1.50;34.30;;;;;;5061027;28;20480;-84
2023/01/29 01:04:12;;;;;;;40.57;27.60;;;1.40;42.60;;;;;;5061790;28;20207;-81
2023/01/29 01:06:39;;;;;;;41.33;28.93;;;1.30;45.50;;;;;;5059405;28;20181;-85
2023/01/29 01:11:50;;;;;;;43.20;30.67;;;1.40;50.70;;;;;;5070141;28;20176;-84
2023/01/29 01:14:17;;;;;;;41.40;29.70;;;1.40;50.90;;;;;;5067283;28;20180;-84
2023/01/29 01:17:02;;;;;;;41.97;29.60;;;1.40;51.70;;;;;;5070229;28;20180;-82
2023/01/29 01:19:27;;;;;;;43.87;29.87;;;1.50;49.60;;;;;;5077323;28;20215;-84
2023/01/29 01:21:53;;;;;;;40.47;29.37;;;1.60;48.10;;;;;;5072968;28;20189;-85
2023/01/29 01:24:19;;;;;;;38.50;28.87;;;1.80;41.40;;;;;;5056188;28;20213;-82
2023/01/29 01:26:45;;;;;;;43.53;29.80;;;1.70;37.20;;;;;;5066433;28;20235;-83
2023/01/29 01:29:11;;;;;;;40.77;30.77;;;1.50;35.70;;;;;;5064797;28;20177;-83
2023/01/29 01:31:39;;;;;;;40.50;29.53;;;1.30;40.80;;;;;;5055134;28;20180;-85
2023/01/29 01:34:05;;;;;;;40.73;29.60;;;1.10;46.80;;;;;;5056273;28;20161;-85
2023/01/29 01:36:31;;;;;;;44.27;29.30;;;1.20;50.40;;;;;;5055400;28;20252;-84
2023/01/29 01:38:57;;;;;;;41.00;28.87;;;1.10;53.80;;;;;;5054162;28;20777;-83
2023/01/29 01:41:23;;;;;;;44.13;30.47;;;1.20;54.20;;;;;;5054849;28;20591;-85
2023/01/29 01:43:53;;;;;;;41.70;29.20;;;1.30;53.10;;;;;;5052639;28;20220;-83
2023/01/29 01:46:19;;;;;;;41.53;29.90;;;1.40;51.50;;;;;;5054315;28;20260;-83
2023/01/29 01:48:47;;;;;;;43.77;29.73;;;1.50;46.30;;;;;;5055005;28;20169;-85
2023/01/29 01:51:15;;;;;;;47.87;31.07;;;1.50;45.10;;;;;;5041644;28;20177;-83
2023/01/29 01:53:50;;;;;;;42.60;30.40;;;1.30;45.70;;;;;;5061209;28;20193;-83
2023/01/29 01:56:23;;;;;;;43.80;29.50;;;1.20;50.00;;;;;;5056919;28;20629;-84
2023/01/29 01:58:55;;;;;;;41.07;28.30;;;1.20;52.60;;;;;;5057559;28;20188;-84
2023/01/29 02:01:27;;;;;;;40.20;28.80;;;1.10;54.90;;;;;;5056028;28;20265;-83
2023/01/29 02:09:39;;;;;;;41.63;28.77;;;1.20;55.70;;;;;;5055472;28;20281;-85
2023/01/29 02:12:09;;;;;;;38.60;26.53;;;1.20;54.70;;;;;;5054098;28;20176;-85
2023/01/29 02:14:39;;;;;;;38.93;27.90;;;1.40;53.30;;;;;;5053359;28;20271;-83
2023/01/29 02:17:07;;;;;;;39.17;27.37;;;1.20;49.70;;;;;;5056989;28;20218;-84
2023/01/29 02:19:51;;;;;;;39.83;27.10;;;1.20;50.80;;;;;;5056781;28;20665;-83
2023/01/29 02:22:38;;;;;;;39.63;28.13;;;1.20;52.90;;;;;;5054006;28;20268;-85
2023/01/29 02:25:16;;;;;;;38.03;25.97;;;1.20;53.60;;;;;;5054734;28;20185;-84
2023/01/29 02:27:47;;;;;;;40.73;27.80;;;1.20;53.70;;;;;;5053882;28;20164;-83
2023/01/29 02:30:29;;;;;;;39.20;28.17;;;1.30;54.20;;;;;;5056524;28;20648;-84
2023/01/29 02:33:06;;;;;;;38.87;28.10;;;1.40;52.60;;;;;;5054675;28;20247;-84
2023/01/29 02:35:41;;;;;;;39.27;28.10;;;1.40;50.50;;;;;;5053298;28;20172;-84
2023/01/29 02:38:20;;;;;;;41.77;28.00;;;1.40;48.90;;;;;;5053594;28;20539;-83
2023/01/29 02:40:53;;;;;;;37.67;27.23;;;1.40;49.40;;;;;;5053301;28;20250;-84
2023/01/29 02:43:42;;;;;;;38.83;27.47;;;1.40;46.30;;;;;;5053701;28;20204;-83
2023/01/29 02:46:17;;;;;;;39.03;27.17;;;1.40;43.50;;;;;;5052196;28;20194;-83
2023/01/29 02:49:02;;;;;;;41.43;28.67;;;1.30;44.20;;;;;;5053010;28;20176;-83
2023/01/29 02:51:36;;;;;;;39.43;27.03;;;1.20;45.80;;;;;;5053145;28;20814;-82
2023/01/29 02:54:29;;;;;;;38.13;26.57;;;1.10;47.40;;;;;;5052634;28;20672;-83
2023/01/29 02:57:03;;;;;;;39.43;28.47;;;0.90;50.60;;;;;;5053641;28;20759;-82
2023/01/29 02:59:45;;;;;;;44.57;27.93;;;0.80;54.50;;;;;;5052231;28;20259;-83
2023/01/29 03:02:19;;;;;;;40.17;27.27;;;0.70;59.10;;;;;;5052061;28;20173;-83
2023/01/29 03:04:52;;;;;;;41.30;27.73;;;0.80;62.70;;;;;;5052234;28;20215;-81
2023/01/29 03:10:23;;;;;;;43.60;29.07;;;1.00;59.30;;;;;;5053864;28;20188;-82
2023/01/29 03:13:14;;;;;;;40.53;28.67;;;1.00;58.60;;;;;;5066560;28;20165;-83
2023/01/29 03:15:46;;;;;;;39.47;28.73;;;0.90;54.70;;;;;;5061586;28;20180;-84
2023/01/29 03:18:17;;;;;;;38.57;26.60;;;1.00;54.60;;;;;;5054003;28;20176;-84
2023/01/29 03:20:50;;;;;;;39.77;27.93;;;1.00;52.80;;;;;;5054324;28;20330;-84
2023/01/29 03:32:06;;;;;;;40.23;27.63;;;0.60;58.40;;;;;;5076492;28;20184;-83
2023/01/29 03:34:50;;;;;;;38.87;27.43;;;0.50;59.20;;;;;;5058221;28;20161;-84
2023/01/29 03:37:25;;;;;;;43.00;27.20;;;0.50;61.20;;;;;;5055315;28;20200;-84
2023/01/29 03:39:50;;;;;;;38.77;26.77;;;0.40;62.50;;;;;;5058770;28;20172;-84
2023/01/29 03:42:28;;;;;;;42.63;28.27;;;0.40;64.70;;;;;;5051758;28;20172;-83
2023/01/29 03:45:18;;;;;;;39.50;27.87;;;0.40;66.00;;;;;;5051419;28;20193;-82
2023/01/29 03:48:20;;;;;;;40.43;28.40;;;0.50;67.00;;;;;;5051715;28;20672;-82
2023/01/29 03:51:00;;;;;;;38.73;26.63;;;0.50;68.50;;;;;;5052227;28;20259;-82
2023/01/29 03:53:46;;;;;;;40.23;26.87;;;0.50;65.90;;;;;;5052075;28;20185;-83
2023/01/29 03:56:31;;;;;;;41.37;27.33;;;0.30;66.50;;;;;;5052418;28;20179;-83
2023/01/29 03:59:12;;;;;;;40.47;26.93;;;0.30;69.50;;;;;;5052953;28;20168;-83
2023/01/29 04:01:47;;;;;;;40.90;27.47;;;0.20;72.30;;;;;;5053225;28;20353;-83
2023/01/29 04:04:21;;;;;;;40.63;26.03;;;0.20;76.10;;;;;;5053205;28;20246;-83
2023/01/29 04:06:49;;;;;;;41.10;26.83;;;0.30;77.30;;;;;;5054098;28;20195;-83
2023/01/29 04:09:21;;;;;;;39.37;27.10;;;0.30;77.90;;;;;;5052345;28;20268;-84
2023/01/29 04:11:58;;;;;;;37.60;26.23;;;0.30;77.70;;;;;;5052373;28;20169;-84
2023/01/29 04:14:24;;;;;;;39.50;26.67;;;0.20;78.20;;;;;;5051236;28;20173;-83
2023/01/29 04:16:54;;;;;;;39.97;26.57;;;0.20;79.00;;;;;;5052764;28;20198;-81
2023/01/29 04:19:20;;;;;;;40.07;26.63;;;0.20;79.70;;;;;;5055460;28;20170;-82
2023/01/29 04:21:49;;;;;;;39.63;26.50;;;0.50;79.20;;;;;;5055815;28;20214;-82
2023/01/29 04:24:17;;;;;;;41.90;26.40;;;0.60;73.30;;;;;;5056362;28;20201;-83
2023/01/29 04:26:58;;;;;;;40.60;28.40;;;0.70;66.80;;;;;;5062239;28;20185;-82
2023/01/29 04:29:33;;;;;;;40.73;27.40;;;0.70;56.20;;;;;;5054118;28;20529;-82
2023/01/29 04:32:29;;;;;;;41.10;26.40;;;0.50;56.20;;;;;;5051590;28;20164;-82
2023/01/29 04:35:14;;;;;;;37.30;26.27;;;0.30;60.20;;;;;;5053483;28;20169;-83
2023/01/29 04:37:40;;;;;;;41.03;26.77;;;0.30;65.80;;;;;;5052155;28;20173;-83
2023/01/29 04:40:14;;;;;;;39.03;26.50;;;0.40;68.50;;;;;;5056049;28;20176;-84
2023/01/29 04:43:17;;;;;;;41.27;27.63;;;0.40;70.10;;;;;;5057343;28;20161;-83
2023/01/29 04:46:06;;;;;;;38.40;26.47;;;0.60;71.80;;;;;;5056130;28;20173;-83
2023/01/29 04:48:45;;;;;;;40.93;27.00;;;0.40;67.30;;;;;;5056116;28;20196;-83
2023/01/29 04:51:35;;;;;;;38.83;26.70;;;0.80;66.80;;;;;;5056894;28;20244;-84
2023/01/29 04:54:11;;;;;;;42.47;27.43;;;0.70;61.20;;;;;;5055770;28;20236;-83
2023/01/29 04:57:04;;;;;;;38.13;25.40;;;0.70;60.70;;;;;;5056187;28;20183;-83
2023/01/29 04:59:34;;;;;;;39.87;26.30;;;0.70;60.60;;;;;;5054634;28;20234;-84
2023/01/29 05:02:01;;;;;;;38.70;24.93;;;0.60;59.50;;;;;;5056430;28;20161;-84
2023/01/29 05:04:30;;;;;;;39.87;26.07;;;0.50;62.70;;;;;;5054163;28;20209;-83
2023/01/29 05:06:56;;;;;;;38.53;25.80;;;0.40;65.30;;;;;;5055024;28;20226;-83
2023/01/29 05:09:22;;;;;;;40.67;27.93;;;0.40;68.80;;;;;;5053748;28;20272;-82
2023/01/29 05:11:49;;;;;;;41.37;27.10;;;0.30;73.40;;;;;;5055093;28;20223;-82
2023/01/29 05:14:18;;;;;;;40.23;26.43;;;0.30;73.90;;;;;;5059055;28;20223;-81
2023/01/29 05:16:50;;;;;;;38.87;26.20;;;0.40;77.40;;;;;;5066357;28;20172;-82
2023/01/29 05:19:16;;;;;;;39.37;25.70;;;0.60;75.70;;;;;;5057301;28;20325;-83
2023/01/29 05:21:47;;;;;;;41.03;27.20;;;0.60;72.80;;;;;;5056747;28;20276;-83
2023/01/29 05:24:21;;;;;;;40.83;26.53;;;0.70;71.30;;;;;;5055790;28;20266;-83
2023/01/29 05:29:32;;;;;;;38.37;25.70;;;0.90;67.10;;;;;;5074772;28;20223;-82
2023/01/29 05:32:00;;;;;;;36.67;25.47;;;1.00;60.00;;;;;;5073708;28;20180;-81
2023/01/29 05:34:25;;;;;;;39.50;25.93;;;0.80;57.90;;;;;;5079357;28;20189;-82
2023/01/29 05:36:52;;;;;;;39.20;25.80;;;0.70;57.60;;;;;;5079248;28;20173;-83
2023/01/29 05:39:31;;;;;;;39.63;26.37;;;0.60;61.70;;;;;;5071080;28;20239;-83
2023/01/29 05:41:58;;;;;;;39.90;24.57;;;0.50;65.90;;;;;;5071084;28;20172;-82
2023/01/29 05:44:24;;;;;;;36.53;24.90;;;0.50;69.20;;;;;;5073850;28;20256;-81
2023/01/29 05:46:50;;;;;;;37.27;25.67;;;0.50;72.10;;;;;;5071189;28;20637;-82
2023/01/29 05:49:19;;;;;;;40.27;26.00;;;0.40;71.60;;;;;;5058483;28;20168;-82
2023/01/29 05:51:47;;;;;;;38.30;24.73;;;0.50;71.90;;;;;;5053766;28;20179;-83
2023/01/29 05:54:12;;;;;;;37.30;25.57;;;0.50;73.20;;;;;;5057792;28;20221;-83
2023/01/29 05:56:38;;;;;;;37.23;25.20;;;0.50;70.10;;;;;;5059273;28;20181;-83
2023/01/29 05:59:04;;;;;;;40.13;26.50;;;0.40;71.10;;;;;;5059675;28;20193;-81
2023/01/29 06:01:30;;;;;;;38.40;25.60;;;0.40;72.70;;;;;;5056603;28;20199;-82
2023/01/29 06:03:56;;;;;;;38.93;26.10;;;0.50;74.50;;;;;;5058862;28;20664;-83
2023/01/29 06:06:21;;;;;;;40.87;26.93;;;0.50;69.10;;;;;;5056380;28;20160;-82
2023/01/29 06:08:47;;;;;;;37.47;23.97;;;0.50;69.70;;;;;;5055450;28;20207;-83
2023/01/29 06:11:17;;;;;;;40.93;27.83;;;0.50;70.30;;;;;;5054951;28;20208;-82
2023/01/29 06:13:44;;;;;;;39.80;26.20;;;0.50;72.80;;;;;;5055460;28;20234;-84
2023/01/29 06:16:12;;;;;;;40.03;26.90;;;0.50;73.80;;;;;;5054239;28;20176;-84
2023/01/29 06:18:38;;;;;;;38.40;25.83;;;0.50;74.30;;;;;;5053648;28;20406;-84
2023/01/29 06:21:07;;;;;;;41.70;26.33;;;0.60;74.40;;;;;;5052894;28;20656;-82
2023/01/29 06:23:33;;;;;;;44.47;27.13;;;0.60;73.20;;;;;;5053955;28;20282;-82
2023/01/29 06:26:09;;;;;;;41.30;26.97;;;0.80;73.80;;;;;;5054202;28;20600;-82
2023/01/29 06:28:35;;;;;;;40.23;26.83;;;0.70;69.80;;;;;;5056645;28;20251;-83
2023/01/29 06:31:02;;;;;;;43.03;26.43;;;0.70;68.10;;;;;;5053650;28;20667;-83
2023/01/29 06:33:28;;;;;;;39.07;25.97;;;0.70;68.30;;;;;;5053266;28;20632;-82
2023/01/29 06:35:59;;;;;;;42.17;25.77;;;0.60;68.50;;;;;;5056230;28;20693;-82
2023/01/29 06:38:25;;;;;;;42.20;26.83;;;0.60;69.70;;;;;;5054390;28;20184;-83
2023/01/29 06:40:51;;;;;;;41.97;26.93;;;0.50;72.40;;;;;;5055367;28;20251;-83
2023/01/29 06:43:17;;;;;;;38.80;26.00;;;0.60;75.10;;;;;;5053459;28;20238;-83
2023/01/29 06:45:48;;;;;;;41.70;27.63;;;0.60;75.90;;;;;;5053768;28;20187;-83
2023/01/29 06:48:14;;;;;;;43.40;27.23;;;0.70;76.80;;;;;;5053910;28;20173;-83
2023/01/29 06:50:39;;;;;;;41.43;28.53;;;0.70;76.30;;;;;;5053547;28;20702;-83
2023/01/29 06:53:05;;;;;;;41.70;27.33;;;0.90;75.90;;;;;;5053056;28;20200;-82
2023/01/29 06:55:30;;;;;;;40.83;27.70;;;1.00;67.50;;;;;;5053540;28;20177;-83
2023/01/29 06:57:56;;;;;;;42.87;29.03;;;1.00;57.00;;;;;;5058396;28;20180;-82
2023/01/29 07:00:22;;;;;;;43.57;27.70;;;0.80;57.40;;;;;;5062943;28;20177;-83
2023/01/29 07:02:50;;;;;;;44.00;28.83;;;0.90;61.80;;;;;;5057093;28;20244;-84
2023/01/29 07:05:16;;;;;;;43.43;28.83;;;0.90;64.60;;;;;;5054503;28;20173;-82
2023/01/29 07:07:42;;;;;;;40.83;26.77;;;1.00;63.20;;;;;;5055008;28;20843;-83
2023/01/29 07:10:09;;;;;;;42.17;27.07;;;1.10;63.30;;;;;;5055443;28;20181;-81
2023/01/29 07:12:34;;;;;;;42.73;28.57;;;1.00;58.00;;;;;;5054528;28;20633;-84
2023/01/29 07:15:00;;;;;;;41.43;28.50;;;0.90;60.40;;;;;;5053465;28;20169;-83
2023/01/29 07:17:25;;;;;;;43.00;28.37;;;0.90;65.70;;;;;;5055510;28;20177;-81
2023/01/29 07:19:51;;;;;;;43.73;28.90;;;1.00;67.80;;;;;;5053013;28;20211;-82
2023/01/29 07:22:17;;;;;;;41.80;29.53;;;1.10;68.70;;;;;;5053888;28;20173;-83
2023/01/29 07:24:42;;;;;;;46.53;28.40;;;1.20;69.20;;;;;;5052983;28;20212;-82
2023/01/29 07:27:08;;;;;;;40.73;27.63;;;1.30;68.60;;;;;;5052862;28;20220;-83
2023/01/29 07:29:34;;;;;;;41.97;27.40;;;1.20;65.90;;;;;;5053632;28;20177;-83
2023/01/29 07:31:59;;;;;;;44.53;27.73;;;1.40;66.60;;;;;;5055637;28;20644;-83
2023/01/29 07:34:25;;;;;;;38.83;26.80;;;1.40;57.40;;;;;;5055305;28;20200;-83
2023/01/29 07:36:54;;;;;;;44.53;28.77;;;1.70;59.20;;;;;;5054186;28;20205;-83
2023/01/29 07:39:19;;;;;;;42.10;28.93;;;1.80;53.40;;;;;;5055900;28;20179;-81
2023/01/29 07:41:45;;;;;;;46.07;31.27;;;1.50;48.40;;;;;;5059551;28;20180;-85
2023/01/29 07:44:11;;;;;;;43.17;28.80;;;1.70;50.70;;;;;;5068724;28;20247;-84
2023/01/29 07:46:36;;;;;;;45.37;31.47;;;1.60;46.40;;;;;;5062080;28;20173;-82
2023/01/29 07:49:02;;;;;;;40.93;28.43;;;1.50;50.40;;;;;;5058565;28;20604;-83
2023/01/29 07:51:28;;;;;;;44.27;28.73;;;1.60;51.80;;;;;;5053942;28;20165;-82
2023/01/29 07:53:54;;;;;;;44.33;29.80;;;1.50;53.80;;;;;;5052942;28;20203;-83
2023/01/29 07:56:20;;;;;;;41.47;27.90;;;1.50;55.40;;;;;;5053478;28;20264;-82
2023/01/29 07:58:47;;;;;;;47.00;29.93;;;1.50;55.50;;;;;;5073151;28;20183;-82
2023/01/29 08:01:13;;;;;;;44.93;29.40;;;1.60;58.00;;;;;;5069764;28;20180;-83
2023/01/29 08:03:48;;;;;;;43.57;29.10;;;1.70;59.00;;;;;;5064872;28;20243;-84
2023/01/29 08:06:14;;;;;;;42.30;27.90;;;1.70;54.90;;;;;;5062329;28;20628;-83
2023/01/29 08:08:40;;;;;;;45.73;30.60;;;1.70;54.40;;;;;;5055182;28;20181;-84
2023/01/29 08:11:05;;;;;;;43.13;29.53;;;1.80;54.00;;;;;;5052892;28;20173;-83
2023/01/29 08:13:32;;;;;;;41.37;29.20;;;2.00;49.90;;;;;;5053118;28;20184;-83
2023/01/29 08:16:02;;;;;;;45.07;28.47;;;2.00;43.80;;;;;;5055355;28;20259;-81
2023/01/29 08:18:32;;;;;;;46.47;30.07;;;1.80;40.50;;;;;;5039374;28;20211;-83
2023/01/29 08:20:59;;;;;;;45.57;30.43;;;1.70;48.40;;;;;;5055769;28;20638;-83
2023/01/29 08:23:25;;;;;;;42.27;27.43;;;1.70;51.80;;;;;;5055658;28;20209;-83
2023/01/29 08:25:51;;;;;;;47.33;31.80;;;1.70;54.30;;;;;;5056749;28;20279;-84
2023/01/29 08:28:16;;;;;;;47.93;29.83;;;1.80;57.50;;;;;;5058167;28;20582;-85
2023/01/29 08:30:42;;;;;;;46.03;29.40;;;2.00;51.60;;;;;;5056884;28;20267;-82
2023/01/29 08:33:09;;;;;;;46.47;30.80;;;2.10;47.40;;;;;;5055891;28;20184;-84
2023/01/29 08:35:34;;;;;;;46.80;28.73;;;2.10;42.40;;;;;;5055941;28;20637;-84
2023/01/29 08:38:02;;;;;;;44.47;30.37;;;1.80;42.70;;;;;;5057595;28;20179;-83
2023/01/29 08:40:33;;;;;;;42.03;29.90;;;2.10;47.20;;;;;;5056412;28;20173;-82
2023/01/29 08:43:00;;;;;;;45.37;30.07;;;2.00;48.50;;;;;;5057867;28;20204;-84
2023/01/29 08:45:26;;;;;;;45.13;30.20;;;1.90;51.20;;;;;;5056016;28;20200;-85
2023/01/29 08:47:51;;;;;;;42.53;28.53;;;2.00;55.20;;;;;;5058151;28;20633;-84
2023/01/29 08:50:17;;;;;;;44.77;29.73;;;1.90;54.70;;;;;;5057975;28;20241;-85
2023/01/29 08:52:44;;;;;;;44.63;29.97;;;1.90;57.50;;;;;;5057922;28;20256;-86
2023/01/29 08:55:10;;;;;;;44.97;29.57;;;1.90;59.20;;;;;;5060551;28;20217;-85
2023/01/29 08:57:37;;;;;;;44.47;30.63;;;1.90;61.60;;;;;;5075486;28;20157;-82
2023/01/29 09:00:05;;;;;;;46.00;30.17;;;2.00;65.00;;;;;;5065000;28;20186;-83
2023/01/29 09:02:31;;;;;;;47.03;29.70;;;2.20;64.30;;;;;;5057605;28;20651;-84
2023/01/29 09:04:57;;;;;;;44.70;30.07;;;2.30;58.00;;;;;;5058666;28;20209;-84
2023/01/29 09:07:23;;;;;;;44.27;28.33;;;2.30;53.90;;;;;;5058892;28;20192;-85
2023/01/29 09:09:48;;;;;;;41.23;29.23;;;2.40;51.30;;;;;;5058190;28;20271;-87
2023/01/29 09:12:14;;;;;;;44.57;29.83;;;2.40;52.50;;;;;;5059274;28;20165;-85
2023/01/29 09:14:40;;;;;;;47.47;30.50;;;2.40;50.70;;;;;;5066140;28;20715;-85
2023/01/29 09:17:05;;;;;;;43.93;29.07;;;2.80;51.50;;;;;;5062037;28;20629;-84
2023/01/29 09:19:31;;;;;;;45.13;29.47;;;2.60;43.20;;;;;;5063067;28;20180;-84
2023/01/29 09:21:59;;;;;;;39.80;28.23;;;2.70;39.80;;;;;;5056439;28;20637;-85
2023/01/29 09:24:25;;;;;;;43.90;29.60;;;2.70;34.70;;;;;;5059703;28;20209;-85
2023/01/29 09:26:51;;;;;;;43.33;30.43;;;2.80;34.90;;;;;;5074940;28;20244;-85
2023/01/29 09:29:16;;;;;;;43.47;28.97;;;2.90;30.30;;;;;;5074420;28;20188;-88
2023/01/29 09:31:42;;;;;;;42.23;28.77;;;2.90;28.00;;;;;;5074768;28;20203;-86
2023/01/29 09:34:09;;;;;;;46.53;28.60;;;2.70;28.30;;;;;;5065945;28;20626;-83
2023/01/29 09:36:34;;;;;;;44.50;30.37;;;2.60;34.40;;;;;;5065172;28;20169;-85
2023/01/29 09:39:02;;;;;;;41.37;29.20;;;2.60;39.60;;;;;;5075197;28;20176;-84
2023/01/29 09:41:28;;;;;;;44.53;30.83;;;2.60;43.90;;;;;;5078932;28;20208;-85
2023/01/29 09:44:07;;;;;;;45.80;28.93;;;2.80;40.70;;;;;;5063648;28;20200;-85
2023/01/29 09:46:39;;;;;;;44.43;29.27;;;2.90;38.00;;;;;;5062432;28;20644;-84
2023/01/29 09:49:23;;;;;;;42.63;29.47;;;2.90;36.20;;;;;;5053832;28;20181;-84
2023/01/29 09:52:10;;;;;;;47.23;30.40;;;2.90;35.00;;;;;;5069622;28;20193;-85
2023/01/29 09:54:54;;;;;;;42.23;30.53;;;3.00;35.80;;;;;;5034580;28;20208;-86
2023/01/29 09:57:56;;;;;;;41.17;28.43;;;3.00;34.10;;;;;;5074143;28;20177;-86
2023/01/29 10:00:28;;;;;;;38.67;25.67;;;3.00;32.70;;;;;;5011034;28;20273;-84
2023/01/29 10:03:18;;;;;;;41.47;28.07;;;3.10;31.70;;;;;;5000752;28;20255;-84
2023/01/29 10:06:26;;;;;;;41.33;28.00;;;3.10;30.60;;;;;;5062005;28;20215;-85
2023/01/29 10:09:16;;;;;;;43.93;27.90;;;3.30;26.40;;;;;;5060453;28;20222;-86
2023/01/29 10:12:04;;;;;;;40.73;27.23;;;3.20;24.50;;;;;;5052022;28;20611;-84
2023/01/29 10:14:55;;;;;;;36.50;26.03;;;3.40;20.50;;;;;;5051078;28;20222;-83
2023/01/29 10:17:41;;;;;;;39.43;27.53;;;3.30;20.30;;;;;;5050830;28;20526;-83
2023/01/29 10:20:31;;;;;;;42.23;28.50;;;3.50;15.70;;;;;;5049164;28;20644;-84
2023/01/29 10:23:22;;;;;;;39.10;25.93;;;3.40;11.90;;;;;;5055851;28;20203;-84
2023/01/29 10:25:48;;;;;;;35.07;26.23;;;3.30;15.10;;;;;;5057943;28;20168;-82
2023/01/29 10:28:18;;;;;;;36.00;25.73;;;3.30;19.20;;;;;;5057182;28;20185;-84
2023/01/29 10:30:54;;;;;;;39.97;26.80;;;3.40;21.00;;;;;;5053698;28;20211;-87
2023/01/29 10:33:30;;;;;;;38.17;26.30;;;3.60;17.40;;;;;;5054274;28;20184;-86
2023/01/29 10:36:02;;;;;;;36.77;26.17;;;3.80;8.70;;;;;;5051270;28;20179;-85
2023/01/29 10:38:34;;;;;;;35.77;24.47;;;3.80;1.00;;;;;;5059859;28;20168;-84
2023/01/29 10:41:08;;;;;;;33.20;23.53;;;3.60;2.60;;;;;;5060324;28;20161;-85
2023/01/29 10:44:02;;;;;;;33.90;24.63;;;3.60;1.80;;;;;;5060928;28;20196;-84
2023/01/29 10:46:52;;;;;;;34.67;24.13;;;3.60;3.50;;;;;;5058019;28;20180;-85
2023/01/29 10:49:27;;;;;;;36.27;25.63;;;3.50;1.40;;;;;;5059716;28;20173;-84
2023/01/29 10:52:14;;;;;;;44.67;25.97;;;3.40;8.80;;;;;;5053291;28;20302;-83
2023/01/29 10:55:02;;;;;;;39.97;25.93;;;3.50;10.60;;;;;;5057494;28;20196;-84
2023/01/29 10:57:38;;;;;;;37.17;25.43;;;3.60;12.10;;;;;;5051489;28;20208;-87
2023/01/29 11:00:18;;;;;;;36.80;26.13;;;3.70;9.00;;;;;;5051342;28;20256;-84
2023/01/29 11:02:47;;;;;;;35.73;24.40;;;3.70;6.00;;;;;;5049997;28;20192;-84
2023/01/29 11:05:39;;;;;;;39.13;24.40;;;3.60;6.40;;;;;;5048570;28;20197;-84
2023/01/29 11:08:14;;;;;;;37.17;24.53;;;3.50;9.70;;;;;;5052848;28;20177;-84
2023/01/29 11:10:47;;;;;;;35.07;25.73;;;3.50;13.30;;;;;;5053736;28;20660;-84
2023/01/29 11:13:14;;;;;;;38.13;25.47;;;3.60;12.40;;;;;;5054677;28;20184;-84
2023/01/29 11:15:40;;;;;;;34.10;23.73;;;3.50;14.90;;;;;;5054744;28;20545;-84
2023/01/29 11:18:13;;;;;;;34.57;24.07;;;3.60;16.30;;;;;;5054110;28;20656;-85
2023/01/29 11:20:44;;;;;;;33.90;23.40;;;3.60;15.10;;;;;;5055655;28;20269;-85
2023/01/29 11:23:36;;;;;;;35.87;24.77;;;3.70;13.90;;;;;;5053123;28;20189;-84
2023/01/29 11:26:03;;;;;;;35.43;22.80;;;3.70;13.30;;;;;;5047513;28;20193;-85
2023/01/29 11:28:46;;;;;;;32.90;23.73;;;3.70;12.30;;;;;;5048279;28;20195;-85
2023/01/29 11:31:16;;;;;;;30.47;23.03;;;3.70;13.70;;;;;;5049268;28;20177;-84
2023/01/29 11:33:42;;;;;;;31.87;22.27;;;3.70;13.40;;;;;;5049666;28;20193;-83
2023/01/29 11:36:34;;;;;;;30.73;22.30;;;3.70;12.10;;;;;;5052064;28;20169;-84
2023/01/29 11:39:21;;;;;;;31.97;20.80;;;3.80;11.60;;;;;;5040198;28;20184;-84
2023/01/29 11:41:48;;;;;;;28.73;20.13;;;3.80;9.70;;;;;;5051005;28;20180;-84
2023/01/29 11:44:26;;;;;;;35.90;19.67;;;3.80;9.80;;;;;;5033759;28;20235;-85
2023/01/29 11:46:52;;;;;;;28.60;19.80;;;3.80;8.70;;;;;;5031627;28;20180;-84
2023/01/29 11:49:30;;;;;;;26.17;19.00;;;4.00;3.30;;;;;;5049493;28;20169;-83
2023/01/29 11:51:58;;;;;;;24.00;17.60;;;3.80;1.00;;;;;;5049200;28;20198;-85
2023/01/29 11:54:29;;;;;;;26.07;18.07;;;3.90;1.00;;;;;;5052760;28;20297;-85
2023/01/29 11:56:55;;;;;;;24.60;17.17;;;4.20;1.00;;;;;;5055947;28;20180;-86
2023/01/29 11:59:41;;;;;;;24.47;17.67;;;4.30;1.00;;;;;;5060086;28;20545;-83
2023/01/29 12:02:25;;;;;;;25.33;17.50;;;4.20;1.00;;;;;;5049073;28;20173;-84
2023/01/29 12:04:53;;;;;;;26.60;17.23;;;4.20;1.00;;;;;;5050761;28;20689;-83
2023/01/29 12:07:20;;;;;;;27.57;17.73;;;4.30;1.00;;;;;;5051027;28;20173;-83
2023/01/29 12:09:55;;;;;;;26.17;16.93;;;4.50;1.00;;;;;;5052607;28;20188;-84
2023/01/29 12:12:28;;;;;;;25.43;17.83;;;4.50;1.00;;;;;;5048249;28;20187;-83
2023/01/29 12:15:18;;;;;;;27.10;17.57;;;4.60;1.00;;;;;;5057159;28;20208;-82
2023/01/29 12:18:02;;;;;;;22.93;16.67;;;4.60;1.00;;;;;;5067119;28;20191;-84
2023/01/29 12:20:42;;;;;;;21.90;15.17;;;4.60;1.00;;;;;;5074403;28;20248;-84
2023/01/29 12:23:16;;;;;;;23.70;15.70;;;4.50;1.00;;;;;;5061087;28;20196;-82
2023/01/29 12:26:22;;;;;;;24.20;16.83;;;4.50;1.00;;;;;;5061556;28;20725;-83
2023/01/29 12:29:22;;;;;;;23.70;17.50;;;4.60;1.00;;;;;;5051955;28;20249;-84
2023/01/29 12:32:08;;;;;;;22.47;15.63;;;4.60;1.00;;;;;;5052420;28;20268;-83
2023/01/29 12:35:00;;;;;;;22.47;15.77;;;4.70;1.00;;;;;;5054083;28;20177;-85
2023/01/29 12:37:38;;;;;;;22.70;15.97;;;4.80;1.00;;;;;;5055761;28;20189;-85
2023/01/29 12:40:15;;;;;;;23.70;16.13;;;4.80;1.00;;;;;;5066884;28;20192;-83
2023/01/29 12:42:47;;;;;;;24.93;16.83;;;4.80;1.00;;;;;;5045918;28;20225;-84
2023/01/29 12:45:18;;;;;;;22.73;15.50;;;4.90;1.00;;;;;;5038708;28;20193;-85
2023/01/29 12:47:50;;;;;;;21.57;15.30;;;4.80;1.00;;;;;;5037274;28;20207;-84
2023/01/29 12:50:35;;;;;;;22.13;15.97;;;4.90;1.00;;;;;;5041397;28;20173;-84
2023/01/29 12:53:28;;;;;;;21.80;15.77;;;4.80;1.00;;;;;;5037203;28;20166;-84
2023/01/29 12:56:18;;;;;;;17.60;13.13;;;4.80;1.00;;;;;;5054499;28;20653;-84
2023/01/29 12:58:48;;;;;;;21.30;15.13;;;4.80;1.00;;;;;;5044753;28;20523;-85
2023/01/29 13:01:33;;;;;;;22.43;15.47;;;4.90;1.00;;;;;;5041267;28;20195;-84
2023/01/29 13:04:00;;;;;;;20.27;15.17;;;4.90;1.00;;;;;;5063650;28;20719;-85
2023/01/29 13:06:33;;;;;;;19.10;14.67;;;4.80;1.00;;;;;;5062912;28;20183;-84
2023/01/29 13:09:06;;;;;;;18.70;14.90;;;4.70;1.00;;;;;;5059734;28;20177;-83
2023/01/29 13:11:53;;;;;;;18.33;13.97;;;4.80;1.00;;;;;;5059604;28;20180;-84
2023/01/29 13:14:48;;;;;;;17.70;13.00;;;5.00;1.00;;;;;;5057770;28;20552;-84
2023/01/29 13:17:38;;;;;;;17.50;13.20;;;5.00;1.00;;;;;;5056968;28;20645;-84
2023/01/29 13:20:26;;;;;;;18.03;13.70;;;4.90;1.00;;;;;;5057571;28;20180;-83
2023/01/29 13:22:57;;;;;;;18.00;13.53;;;4.90;1.00;;;;;;5061703;28;20771;-83
2023/01/29 13:25:22;;;;;;;18.57;13.37;;;4.90;1.00;;;;;;5068562;28;20173;-84
2023/01/29 13:27:49;;;;;;;19.33;13.20;;;4.90;1.00;;;;;;5069648;28;20185;-83
2023/01/29 13:30:33;;;;;;;20.03;14.63;;;4.80;1.00;;;;;;5062521;28;20165;-84
2023/01/29 13:33:09;;;;;;;19.03;13.37;;;4.80;1.00;;;;;;5057467;28;20268;-83
2023/01/29 13:35:40;;;;;;;19.70;14.27;;;4.80;1.00;;;;;;5055709;28;20243;-86
2023/01/29 13:38:28;;;;;;;18.67;13.53;;;4.90;1.00;;;;;;5057858;28;20220;-86